createdAt,value
2023-01-28T00:00:51.146Z,1.50
2023-01-28T00:03:18.116Z,1.50
2023-01-28T00:05:45.053Z,1.50
2023-01-28T00:08:14.693Z,1.50
2023-01-28T00:10:43.170Z,1.40
2023-01-28T00:13:12.618Z,1.40
2023-01-28T00:15:39.739Z,1.40
2023-01-28T00:18:06.664Z,1.40
2023-01-28T00:20:35.291Z,1.40
2023-01-28T00:23:02.486Z,1.50
2023-01-28T00:25:29.375Z,1.40
2023-01-28T00:27:57.693Z,1.50
2023-01-28T00:30:24.555Z,1.50
2023-01-28T00:32:53.249Z,1.50
2023-01-28T00:35:20.123Z,1.50
2023-01-28T00:37:47.457Z,1.60
2023-01-28T00:40:14.690Z,1.50
2023-01-28T00:42:41.611Z,1.50
2023-01-28T00:45:10.714Z,1.50
2023-01-28T00:47:38.106Z,1.50
2023-01-28T00:50:05.808Z,1.50
2023-01-28T00:52:33.055Z,1.50
2023-01-28T00:54:59.915Z,1.50
2023-01-28T00:57:27.155Z,1.50
2023-01-28T00:59:54.061Z,1.50
2023-01-28T01:02:23.701Z,1.50
2023-01-28T01:04:59.528Z,1.60
2023-01-28T01:07:34.924Z,1.60
2023-01-28T01:10:02.585Z,1.60
2023-01-28T01:12:30.041Z,1.60
2023-01-28T01:14:57.156Z,1.60
2023-01-28T01:17:25.763Z,1.60
2023-01-28T01:19:52.536Z,1.60
2023-01-28T01:22:19.317Z,1.60
2023-01-28T01:24:47.760Z,1.60
2023-01-28T01:27:15.387Z,1.60
2023-01-28T01:29:42.196Z,1.60
2023-01-28T01:32:09.203Z,1.60
2023-01-28T01:34:37.402Z,1.60
2023-01-28T01:37:06.402Z,1.60
2023-01-28T01:39:33.269Z,1.60
2023-01-28T01:42:01.402Z,1.60
2023-01-28T01:44:57.630Z,1.60
2023-01-28T01:47:28.989Z,1.60
2023-01-28T01:49:58.395Z,1.60
2023-01-28T01:52:31.828Z,1.60
2023-01-28T01:55:02.561Z,1.60
2023-01-28T01:57:32.569Z,1.60
2023-01-28T02:00:06.145Z,1.70
2023-01-28T02:02:45.744Z,1.60
2023-01-28T02:05:18.296Z,1.70
2023-01-28T02:07:46.742Z,1.60
2023-01-28T02:10:14.419Z,1.60
2023-01-28T02:12:45.004Z,1.60
2023-01-28T02:15:16.916Z,1.60
2023-01-28T02:17:44.745Z,1.60
2023-01-28T02:20:15.170Z,1.60
2023-01-28T02:23:19.004Z,1.60
2023-01-28T02:26:25.935Z,1.60
2023-01-28T02:28:58.390Z,1.60
2023-01-28T02:31:30.762Z,1.50
2023-01-28T02:34:05.995Z,1.60
2023-01-28T02:36:40.668Z,1.60
2023-01-28T02:39:13.465Z,1.60
2023-01-28T02:41:49.281Z,1.70
2023-01-28T02:44:17.967Z,1.70
2023-01-28T02:47:03.887Z,1.60
2023-01-28T02:49:36.952Z,1.70
2023-01-28T02:52:14.785Z,1.60
2023-01-28T02:54:49.237Z,1.60
2023-01-28T02:57:30.296Z,1.60
2023-01-28T03:00:10.313Z,1.60
2023-01-28T03:02:44.381Z,1.60
2023-01-28T03:05:20.872Z,1.60
2023-01-28T03:07:49.361Z,1.60
2023-01-28T03:10:20.055Z,1.60
2023-01-28T03:13:10.295Z,1.60
2023-01-28T03:16:02.426Z,1.60
2023-01-28T03:18:54.231Z,1.60
2023-01-28T03:21:44.924Z,1.70
2023-01-28T03:24:35.225Z,1.70
2023-01-28T03:27:30.697Z,1.60
2023-01-28T03:30:25.648Z,1.60
2023-01-28T03:33:13.727Z,1.70
2023-01-28T03:36:00.032Z,1.60
2023-01-28T03:38:34.113Z,1.60
2023-01-28T03:41:02.795Z,1.70
2023-01-28T03:43:31.422Z,1.70
2023-01-28T03:45:59.905Z,1.70
2023-01-28T03:48:29.231Z,1.70
2023-01-28T03:50:57.235Z,1.70
2023-01-28T03:53:26.027Z,1.70
2023-01-28T03:55:54.406Z,1.70
2023-01-28T03:58:27.184Z,1.70
2023-01-28T04:00:54.839Z,1.80
2023-01-28T04:03:22.285Z,1.80
2023-01-28T04:06:04.328Z,1.70
2023-01-28T04:08:54.508Z,1.80
2023-01-28T04:11:31.764Z,1.80
2023-01-28T04:14:01.559Z,1.70
2023-01-28T04:16:38.627Z,1.70
2023-01-28T04:19:06.587Z,1.70
2023-01-28T04:21:35.930Z,1.70
2023-01-28T04:24:04.482Z,1.70
2023-01-28T04:26:31.524Z,1.70
2023-01-28T04:28:58.693Z,1.70
2023-01-28T04:31:26.027Z,1.70
2023-01-28T04:34:24.979Z,1.70
2023-01-28T04:37:15.980Z,1.80
2023-01-28T04:40:02.869Z,1.80
2023-01-28T04:42:41.464Z,1.80
2023-01-28T04:45:21.773Z,1.80
2023-01-28T04:48:03.352Z,1.80
2023-01-28T04:51:02.765Z,1.80
2023-01-28T04:53:42.608Z,1.80
2023-01-28T04:56:24.583Z,1.80
2023-01-28T04:58:51.560Z,1.70
2023-01-28T05:01:18.554Z,1.70
2023-01-28T05:03:45.422Z,1.70
2023-01-28T05:06:20.757Z,1.80
2023-01-28T05:08:49.503Z,1.70
2023-01-28T05:11:16.573Z,1.70
2023-01-28T05:13:45.101Z,1.70
2023-01-28T05:16:13.757Z,1.70
2023-01-28T05:18:40.784Z,1.70
2023-01-28T05:21:14.262Z,1.70
2023-01-28T05:23:41.167Z,1.70
2023-01-28T05:26:09.566Z,1.70
2023-01-28T05:28:36.549Z,1.70
2023-01-28T05:31:04.496Z,1.70
2023-01-28T05:33:31.428Z,1.70
2023-01-28T05:35:59.052Z,1.70
2023-01-28T05:38:25.973Z,1.70
2023-01-28T05:40:53.013Z,1.70
2023-01-28T05:43:21.391Z,1.80
2023-01-28T05:46:14.198Z,1.80
2023-01-28T05:49:13.689Z,1.80
2023-01-28T05:51:59.369Z,1.70
2023-01-28T05:54:26.472Z,1.70
2023-01-28T05:56:54.102Z,1.70
2023-01-28T05:59:22.363Z,1.70
2023-01-28T06:01:51.474Z,1.70
2023-01-28T06:04:22.682Z,1.80
2023-01-28T06:06:49.923Z,1.80
2023-01-28T06:09:16.885Z,1.80
2023-01-28T06:11:45.601Z,1.80
2023-01-28T06:14:13.986Z,1.80
2023-01-28T06:17:00.984Z,1.70
2023-01-28T06:19:37.866Z,1.80
2023-01-28T06:22:05.767Z,1.70
2023-01-28T06:24:32.955Z,1.70
2023-01-28T06:26:59.795Z,1.70
2023-01-28T06:29:26.660Z,1.70
2023-01-28T06:31:54.095Z,1.70
2023-01-28T06:34:22.379Z,1.70
2023-01-28T06:36:50.873Z,1.70
2023-01-28T06:39:17.755Z,1.70
2023-01-28T06:41:44.652Z,1.70
2023-01-28T06:44:11.549Z,1.70
2023-01-28T06:46:38.418Z,1.60
2023-01-28T06:49:05.413Z,1.70
2023-01-28T06:51:33.682Z,1.70
2023-01-28T06:54:01.324Z,1.70
2023-01-28T06:56:28.201Z,1.70
2023-01-28T06:58:55.128Z,1.70
2023-01-28T07:01:22.063Z,1.70
2023-01-28T07:03:49.004Z,1.70
2023-01-28T07:06:15.908Z,1.70
2023-01-28T07:08:44.097Z,1.70
2023-01-28T07:11:10.909Z,1.70
2023-01-28T07:13:37.794Z,1.80
2023-01-28T07:16:05.309Z,1.80
2023-01-28T07:18:32.124Z,1.80
2023-01-28T07:20:58.990Z,1.80
2023-01-28T07:23:27.689Z,1.90
2023-01-28T07:26:01.541Z,1.90
2023-01-28T07:28:28.433Z,1.90
2023-01-28T07:30:55.308Z,1.90
2023-01-28T07:33:22.297Z,1.90
2023-01-28T07:35:49.448Z,1.90
2023-01-28T07:38:16.724Z,2.00
2023-01-28T07:40:43.645Z,2.00
2023-01-28T07:43:12.231Z,2.00
2023-01-28T07:45:41.027Z,2.00
2023-01-28T07:48:10.174Z,2.00
2023-01-28T07:50:38.115Z,2.00
2023-01-28T07:53:06.227Z,2.00
2023-01-28T07:55:35.835Z,2.00
2023-01-28T07:58:04.266Z,2.10
2023-01-28T08:00:34.453Z,2.00
2023-01-28T08:03:04.914Z,2.00
2023-01-28T08:05:39.211Z,2.00
2023-01-28T08:08:06.472Z,2.10
2023-01-28T08:10:33.396Z,2.10
2023-01-28T08:13:00.232Z,2.10
2023-01-28T08:15:27.484Z,2.10
2023-01-28T08:17:56.947Z,2.10
2023-01-28T08:20:26.538Z,2.10
2023-01-28T08:22:53.640Z,2.20
2023-01-28T08:25:20.925Z,2.20
2023-01-28T08:27:47.842Z,2.20
2023-01-28T08:30:15.458Z,2.30
2023-01-28T08:32:42.477Z,2.30
2023-01-28T08:35:10.765Z,2.30
2023-01-28T08:37:38.066Z,2.40
2023-01-28T08:40:06.288Z,2.40
2023-01-28T08:42:33.161Z,2.30
2023-01-28T08:45:00.160Z,2.40
2023-01-28T08:47:26.978Z,2.40
2023-01-28T08:49:53.889Z,2.40
2023-01-28T08:52:22.113Z,2.40
2023-01-28T08:54:48.951Z,2.40
2023-01-28T08:57:15.793Z,2.50
2023-01-28T08:59:46.073Z,2.50
2023-01-28T09:02:25.668Z,2.50
2023-01-28T09:04:57.969Z,2.50
2023-01-28T09:07:26.240Z,2.50
2023-01-28T09:09:53.067Z,2.50
2023-01-28T09:12:19.905Z,2.50
2023-01-28T09:14:46.917Z,2.50
2023-01-28T09:17:13.800Z,2.50
2023-01-28T09:19:40.677Z,2.60
2023-01-28T09:22:07.565Z,2.60
2023-01-28T09:24:38.587Z,2.60
2023-01-28T09:27:05.702Z,2.60
2023-01-28T09:29:34.155Z,2.70
2023-01-28T09:32:01.559Z,2.70
2023-01-28T09:34:28.494Z,2.70
2023-01-28T09:36:55.492Z,2.80
2023-01-28T09:39:22.419Z,2.90
2023-01-28T09:41:57.802Z,2.90
2023-01-28T09:44:35.349Z,2.90
2023-01-28T09:47:03.492Z,3.00
2023-01-28T09:49:37.054Z,3.10
2023-01-28T09:52:04.191Z,3.10
2023-01-28T09:54:40.145Z,3.20
2023-01-28T09:57:14.105Z,3.30
2023-01-28T09:59:41.023Z,3.30
2023-01-28T10:02:31.871Z,3.40
2023-01-28T10:05:10.446Z,3.40
2023-01-28T10:07:44.256Z,3.50
2023-01-28T10:10:16.559Z,3.50
2023-01-28T10:13:04.039Z,3.60
2023-01-28T10:15:50.356Z,3.60
2023-01-28T10:18:25.518Z,3.60
2023-01-28T10:20:56.172Z,3.60
2023-01-28T10:23:26.588Z,3.60
2023-01-28T10:25:57.532Z,3.60
2023-01-28T10:28:28.458Z,3.50
2023-01-28T10:30:55.687Z,3.50
2023-01-28T10:33:29.003Z,3.50
2023-01-28T10:35:56.639Z,3.50
2023-01-28T10:38:26.999Z,3.50
2023-01-28T10:40:58.136Z,3.40
2023-01-28T10:43:30.208Z,3.50
2023-01-28T10:46:01.882Z,3.50
2023-01-28T10:48:32.370Z,3.40
2023-01-28T10:51:05.606Z,3.40
2023-01-28T10:53:37.656Z,3.40
2023-01-28T10:56:07.308Z,3.40
2023-01-28T10:58:46.738Z,3.40
2023-01-28T11:01:13.707Z,3.40
2023-01-28T11:03:51.703Z,3.40
2023-01-28T11:06:25.274Z,3.40
2023-01-28T11:08:52.288Z,3.40
2023-01-28T11:11:25.600Z,3.40
2023-01-28T11:13:55.678Z,3.40
2023-01-28T11:16:22.690Z,3.50
2023-01-28T11:18:53.950Z,3.50
2023-01-28T11:21:24.190Z,3.50
2023-01-28T11:23:53.998Z,3.50
2023-01-28T11:26:24.196Z,3.60
2023-01-28T11:28:53.681Z,3.60
2023-01-28T11:31:23.985Z,3.50
2023-01-28T11:33:53.831Z,3.50
2023-01-28T11:36:23.397Z,3.50
2023-01-28T11:38:53.216Z,3.50
2023-01-28T11:41:27.633Z,3.50
2023-01-28T11:43:56.482Z,3.40
2023-01-28T11:46:46.282Z,3.50
2023-01-28T11:49:23.523Z,3.50
2023-01-28T11:51:58.009Z,3.40
2023-01-28T11:54:42.415Z,3.40
2023-01-28T11:57:23.419Z,3.40
2023-01-28T12:00:30.073Z,3.40
2023-01-28T12:03:15.917Z,3.40
2023-01-28T12:05:49.342Z,3.40
2023-01-28T12:08:23.094Z,3.30
2023-01-28T12:11:03.636Z,3.30
2023-01-28T12:13:42.809Z,3.30
2023-01-28T12:16:31.575Z,3.30
2023-01-28T12:19:33.552Z,3.30
2023-01-28T12:22:37.013Z,3.30
2023-01-28T12:25:14.830Z,3.30
2023-01-28T12:27:51.302Z,3.30
2023-01-28T12:30:26.820Z,3.30
2023-01-28T12:33:17.415Z,3.20
2023-01-28T12:35:56.320Z,3.20
2023-01-28T12:38:33.497Z,3.20
2023-01-28T12:41:04.824Z,3.20
2023-01-28T12:43:52.713Z,3.20
2023-01-28T12:46:29.459Z,3.20
2023-01-28T12:49:03.584Z,3.30
2023-01-28T12:51:36.503Z,3.30
2023-01-28T12:54:11.456Z,3.30
2023-01-28T12:56:42.437Z,3.20
2023-01-28T12:59:13.643Z,3.20
2023-01-28T13:01:44.166Z,3.20
2023-01-28T13:04:17.749Z,3.20
2023-01-28T13:06:52.247Z,3.20
2023-01-28T13:09:20.701Z,3.20
2023-01-28T13:11:49.728Z,3.20
2023-01-28T13:14:17.058Z,3.20
2023-01-28T13:16:43.942Z,3.20
2023-01-28T13:19:24.871Z,3.20
2023-01-28T13:21:52.387Z,3.20
2023-01-28T13:24:23.085Z,3.20
2023-01-28T13:26:52.006Z,3.20
2023-01-28T13:29:27.689Z,3.20
2023-01-28T13:31:56.668Z,3.20
2023-01-28T13:34:36.125Z,3.20
2023-01-28T13:37:18.883Z,3.20
2023-01-28T13:39:51.055Z,3.20
2023-01-28T13:42:24.842Z,3.20
2023-01-28T13:44:51.813Z,3.20
2023-01-28T13:47:27.219Z,3.20
2023-01-28T13:50:03.537Z,3.20
2023-01-28T13:52:32.843Z,3.20
2023-01-28T13:55:03.869Z,3.20
2023-01-28T13:58:15.659Z,3.30
2023-01-28T14:01:01.580Z,3.30
2023-01-28T14:03:54.857Z,3.30
2023-01-28T14:07:04.432Z,3.30
2023-01-28T14:10:05.721Z,3.30
2023-01-28T14:12:56.738Z,3.30
2023-01-28T14:15:45.702Z,3.30
2023-01-28T14:18:22.826Z,3.30
2023-01-28T14:20:50.588Z,3.20
2023-01-28T14:23:21.978Z,3.20
2023-01-28T14:26:03.257Z,3.20
2023-01-28T14:28:40.673Z,3.30
2023-01-28T14:31:12.047Z,3.30
2023-01-28T14:33:40.633Z,3.30
2023-01-28T14:36:10.943Z,3.30
2023-01-28T14:38:41.090Z,3.30
2023-01-28T14:41:10.543Z,3.30
2023-01-28T14:43:39.913Z,3.30
2023-01-28T14:46:17.351Z,3.30
2023-01-28T14:48:51.237Z,3.30
2023-01-28T14:51:32.873Z,3.30
2023-01-28T14:54:17.712Z,3.30
2023-01-28T14:57:06.707Z,3.30
2023-01-28T14:59:41.619Z,3.20
2023-01-28T15:02:18.752Z,3.20
2023-01-28T15:04:45.674Z,3.20
2023-01-28T15:07:18.265Z,3.20
2023-01-28T15:09:46.947Z,3.20
2023-01-28T15:12:15.678Z,3.20
2023-01-28T15:14:44.390Z,3.20
2023-01-28T15:17:25.407Z,3.20
2023-01-28T15:19:54.372Z,3.20
2023-01-28T15:22:26.047Z,3.10
2023-01-28T15:24:54.899Z,3.10
2023-01-28T15:27:28.520Z,3.10
2023-01-28T15:29:57.800Z,3.10
2023-01-28T15:32:26.992Z,3.10
2023-01-28T15:34:54.570Z,3.10
2023-01-28T15:37:22.488Z,3.10
2023-01-28T15:40:02.578Z,3.10
2023-01-28T15:42:31.729Z,3.00
2023-01-28T15:44:59.705Z,3.00
2023-01-28T15:47:29.767Z,3.00
2023-01-28T15:49:59.990Z,3.00
2023-01-28T15:52:32.994Z,3.00
2023-01-28T15:55:00.036Z,3.00
2023-01-28T15:57:31.836Z,3.00
2023-01-28T16:00:13.204Z,3.00
2023-01-28T16:02:45.018Z,3.00
2023-01-28T16:05:27.034Z,3.00
2023-01-28T16:07:54.649Z,3.00
2023-01-28T16:10:25.010Z,3.00
2023-01-28T16:12:57.262Z,3.00
2023-01-28T16:15:24.252Z,3.00
2023-01-28T16:17:52.320Z,2.90
2023-01-28T16:20:22.518Z,3.00
2023-01-28T16:22:49.887Z,2.90
2023-01-28T16:25:27.196Z,2.90
2023-01-28T16:27:55.531Z,2.80
2023-01-28T16:30:22.632Z,2.80
2023-01-28T16:32:49.555Z,2.80
2023-01-28T16:35:19.394Z,2.80
2023-01-28T16:37:47.460Z,2.80
2023-01-28T16:40:16.705Z,2.80
2023-01-28T16:42:48.469Z,2.80
2023-01-28T16:45:19.618Z,2.80
2023-01-28T16:47:47.102Z,2.70
2023-01-28T16:50:18.052Z,2.70
2023-01-28T16:52:47.903Z,2.70
2023-01-28T16:55:17.508Z,2.70
2023-01-28T16:57:46.247Z,2.70
2023-01-28T17:00:19.242Z,2.70
2023-01-28T17:02:46.625Z,2.70
2023-01-28T17:05:15.233Z,2.70
2023-01-28T17:07:42.640Z,2.70
2023-01-28T17:10:11.293Z,2.70
2023-01-28T17:12:38.154Z,2.70
2023-01-28T17:15:05.987Z,2.70
2023-01-28T17:17:34.165Z,2.70
2023-01-28T17:20:00.943Z,2.70
2023-01-28T17:22:27.764Z,2.70
2023-01-28T17:24:54.620Z,2.70
2023-01-28T17:27:21.563Z,2.80
2023-01-28T17:29:48.449Z,2.80
2023-01-28T17:32:15.312Z,2.80
2023-01-28T17:34:43.562Z,2.80
2023-01-28T17:37:10.596Z,2.80
2023-01-28T17:39:37.482Z,2.80
2023-01-28T17:42:04.560Z,2.80
2023-01-28T17:44:31.593Z,2.80
2023-01-28T17:46:58.463Z,2.80
2023-01-28T17:49:25.489Z,2.80
2023-01-28T17:51:53.762Z,2.80
2023-01-28T17:54:20.594Z,2.80
2023-01-28T17:56:47.462Z,2.80
2023-01-28T17:59:16.795Z,2.80
2023-01-28T18:01:45.054Z,2.80
2023-01-28T18:04:13.139Z,2.80
2023-01-28T18:06:40.133Z,2.80
2023-01-28T18:09:09.338Z,2.80
2023-01-28T18:11:36.416Z,2.80
2023-01-28T18:14:03.455Z,2.80
2023-01-28T18:16:30.470Z,2.80
2023-01-28T18:18:57.372Z,2.80
2023-01-28T18:21:42.912Z,2.90
2023-01-28T18:24:18.997Z,2.90
2023-01-28T18:26:46.028Z,2.80
2023-01-28T18:29:16.773Z,2.80
2023-01-28T18:31:43.975Z,2.80
2023-01-28T18:34:10.982Z,2.80
2023-01-28T18:36:37.828Z,2.80
2023-01-28T18:39:04.748Z,2.80
2023-01-28T18:41:32.936Z,2.80
2023-01-28T18:43:59.781Z,2.80
2023-01-28T18:46:26.667Z,2.70
2023-01-28T18:48:55.706Z,2.70
2023-01-28T18:51:30.799Z,2.70
2023-01-28T18:53:58.905Z,2.70
2023-01-28T18:56:26.159Z,2.70
2023-01-28T18:58:57.021Z,2.70
2023-01-28T19:01:23.945Z,2.60
2023-01-28T19:03:51.234Z,2.60
2023-01-28T19:06:18.148Z,2.60
2023-01-28T19:08:45.030Z,2.60
2023-01-28T19:11:11.856Z,2.60
2023-01-28T19:13:38.894Z,2.60
2023-01-28T19:16:07.599Z,2.60
2023-01-28T19:18:34.525Z,2.60
2023-01-28T19:21:02.701Z,2.60
2023-01-28T19:23:33.059Z,2.60
2023-01-28T19:26:07.886Z,2.60
2023-01-28T19:28:35.907Z,2.60
2023-01-28T19:31:03.213Z,2.60
2023-01-28T19:33:31.544Z,2.70
2023-01-28T19:36:00.051Z,2.60
2023-01-28T19:38:28.053Z,2.70
2023-01-28T19:40:54.993Z,2.70
2023-01-28T19:43:22.259Z,2.70
2023-01-28T19:45:55.834Z,2.70
2023-01-28T19:48:23.098Z,2.70
2023-01-28T19:50:51.322Z,2.60
2023-01-28T19:53:19.371Z,2.60
2023-01-28T19:55:46.539Z,2.60
2023-01-28T19:58:13.457Z,2.70
2023-01-28T20:00:40.952Z,2.70
2023-01-28T20:03:08.389Z,2.60
2023-01-28T20:05:35.382Z,2.70
2023-01-28T20:08:04.183Z,2.70
2023-01-28T20:10:31.484Z,2.70
2023-01-28T20:12:58.348Z,2.60
2023-01-28T20:15:25.326Z,2.60
2023-01-28T20:17:52.271Z,2.60
2023-01-28T20:20:19.217Z,2.60
2023-01-28T20:22:46.094Z,2.60
2023-01-28T20:25:14.890Z,2.60
2023-01-28T20:27:41.931Z,2.60
2023-01-28T20:30:10.276Z,2.50
2023-01-28T20:32:37.188Z,2.50
2023-01-28T20:35:04.390Z,2.50
2023-01-28T20:37:31.248Z,2.50
2023-01-28T20:39:58.131Z,2.50
2023-01-28T20:42:26.343Z,2.50
2023-01-28T20:44:53.209Z,2.50
2023-01-28T20:47:20.020Z,2.50
2023-01-28T20:49:46.781Z,2.40
2023-01-28T20:52:13.632Z,2.40
2023-01-28T20:54:40.536Z,2.40
2023-01-28T20:57:07.322Z,2.40
2023-01-28T20:59:36.434Z,2.50
2023-01-28T21:02:03.309Z,2.50
2023-01-28T21:04:30.259Z,2.50
2023-01-28T21:06:57.172Z,2.50
2023-01-28T21:09:25.872Z,2.50
2023-01-28T21:11:52.715Z,2.50
2023-01-28T21:14:19.909Z,2.40
2023-01-28T21:16:51.099Z,2.40
2023-01-28T21:19:18.040Z,2.40
2023-01-28T21:21:46.020Z,2.50
2023-01-28T21:24:12.924Z,2.40
2023-01-28T21:26:40.037Z,2.40
2023-01-28T21:29:06.946Z,2.30
2023-01-28T21:31:33.923Z,2.30
2023-01-28T21:34:02.232Z,2.30
2023-01-28T21:36:33.606Z,2.30
2023-01-28T21:39:01.251Z,2.30
2023-01-28T21:41:28.226Z,2.20
2023-01-28T21:43:57.481Z,2.20
2023-01-28T21:46:25.934Z,2.30
2023-01-28T21:48:54.913Z,2.20
2023-01-28T21:51:35.475Z,2.20
2023-01-28T21:54:02.717Z,2.20
2023-01-28T21:56:29.596Z,2.20
2023-01-28T21:59:14.913Z,2.20
2023-01-28T22:01:43.298Z,2.20
2023-01-28T22:04:10.326Z,2.10
2023-01-28T22:06:38.547Z,2.10
2023-01-28T22:09:05.749Z,2.10
2023-01-28T22:11:32.685Z,2.00
2023-01-28T22:13:59.512Z,2.00
2023-01-28T22:16:26.364Z,2.00
2023-01-28T22:18:53.231Z,2.00
2023-01-28T22:21:20.048Z,2.00
2023-01-28T22:23:48.268Z,2.00
2023-01-28T22:26:15.138Z,2.00
2023-01-28T22:28:42.106Z,2.00
2023-01-28T22:31:10.949Z,2.00
2023-01-28T22:33:38.815Z,2.00
2023-01-28T22:36:08.006Z,2.00
2023-01-28T22:38:36.841Z,1.90
2023-01-28T22:41:06.369Z,1.90
2023-01-28T22:43:33.471Z,2.00
2023-01-28T22:46:00.575Z,2.00
2023-01-28T22:48:27.664Z,2.00
2023-01-28T22:50:55.016Z,2.00
2023-01-28T22:53:22.704Z,2.00
2023-01-28T22:55:50.984Z,1.90
2023-01-28T22:58:19.239Z,1.90
2023-01-28T23:00:46.106Z,1.90
2023-01-28T23:03:13.004Z,1.90
2023-01-28T23:05:39.905Z,1.90
2023-01-28T23:08:12.900Z,1.90
2023-01-28T23:10:41.336Z,1.90
2023-01-28T23:13:08.239Z,1.80
2023-01-28T23:15:54.949Z,1.80
2023-01-28T23:18:41.320Z,1.80
2023-01-28T23:21:33.162Z,1.80
2023-01-28T23:24:18.738Z,1.80
2023-01-28T23:26:46.097Z,1.80
2023-01-28T23:29:12.926Z,1.80
2023-01-28T23:31:43.011Z,1.80
2023-01-28T23:34:10.106Z,1.80
2023-01-28T23:36:37.049Z,1.80
2023-01-28T23:39:03.978Z,1.70
2023-01-28T23:41:30.806Z,1.70
2023-01-28T23:43:57.694Z,1.70
2023-01-28T23:46:38.632Z,1.70
2023-01-28T23:49:08.721Z,1.60
2023-01-28T23:51:35.653Z,1.60
2023-01-28T23:54:02.757Z,1.60
2023-01-28T23:56:29.585Z,1.60
2023-01-28T23:58:56.735Z,1.60
